sensor_id;sensor_type;location;lat;lon;timestamp;temperature;humidity
66312;HTU21D;53114;51.138;6.008;2024-02-21T00:02:21;10.37;94.37
66312;HTU21D;53114;51.138;6.008;2024-02-21T00:04:47;10.38;94.31
66312;HTU21D;53114;51.138;6.008;2024-02-21T00:07:13;10.40;94.26
66312;HTU21D;53114;51.138;6.008;2024-02-21T00:09:38;10.39;94.33
66312;HTU21D;53114;51.138;6.008;2024-02-21T00:12:04;10.43;94.24
66312;HTU21D;53114;51.138;6.008;2024-02-21T00:14:31;10.41;94.01
66312;HTU21D;53114;51.138;6.008;2024-02-21T00:16:57;10.43;94.70
66312;HTU21D;53114;51.138;6.008;2024-02-21T00:19:22;10.42;94.83
66312;HTU21D;53114;51.138;6.008;2024-02-21T00:21:48;10.40;94.81
66312;HTU21D;53114;51.138;6.008;2024-02-21T00:24:14;10.41;94.93
66312;HTU21D;53114;51.138;6.008;2024-02-21T00:26:40;10.42;94.91
66312;HTU21D;53114;51.138;6.008;2024-02-21T00:29:06;10.41;94.88
66312;HTU21D;53114;51.138;6.008;2024-02-21T00:31:32;10.37;95.55
66312;HTU21D;53114;51.138;6.008;2024-02-21T00:33:58;10.39;94.40
66312;HTU21D;53114;51.138;6.008;2024-02-21T00:36:24;10.41;95.36
66312;HTU21D;53114;51.138;6.008;2024-02-21T00:38:49;10.41;95.55
66312;HTU21D;53114;51.138;6.008;2024-02-21T00:41:15;10.42;95.28
66312;HTU21D;53114;51.138;6.008;2024-02-21T00:43:42;10.46;94.69
66312;HTU21D;53114;51.138;6.008;2024-02-21T00:46:08;10.46;94.66
66312;HTU21D;53114;51.138;6.008;2024-02-21T00:48:34;10.48;94.96
66312;HTU21D;53114;51.138;6.008;2024-02-21T00:51:01;10.39;95.63
66312;HTU21D;53114;51.138;6.008;2024-02-21T00:53:26;10.40;96.05
66312;HTU21D;53114;51.138;6.008;2024-02-21T00:55:52;10.43;95.78
66312;HTU21D;53114;51.138;6.008;2024-02-21T00:58:18;10.45;95.56
66312;HTU21D;53114;51.138;6.008;2024-02-21T01:00:44;10.46;95.01
66312;HTU21D;53114;51.138;6.008;2024-02-21T01:03:10;10.48;95.13
66312;HTU21D;53114;51.138;6.008;2024-02-21T01:05:36;10.50;95.30
66312;HTU21D;53114;51.138;6.008;2024-02-21T01:08:02;10.49;95.43
66312;HTU21D;53114;51.138;6.008;2024-02-21T01:10:28;10.49;95.46
66312;HTU21D;53114;51.138;6.008;2024-02-21T01:12:53;10.49;95.32
66312;HTU21D;53114;51.138;6.008;2024-02-21T01:15:19;10.46;95.52
66312;HTU21D;53114;51.138;6.008;2024-02-21T01:17:45;10.40;96.31
66312;HTU21D;53114;51.138;6.008;2024-02-21T01:20:11;10.39;96.41
66312;HTU21D;53114;51.138;6.008;2024-02-21T01:22:37;10.40;96.26
66312;HTU21D;53114;51.138;6.008;2024-02-21T01:25:03;10.33;96.01
66312;HTU21D;53114;51.138;6.008;2024-02-21T01:27:29;10.40;96.72
66312;HTU21D;53114;51.138;6.008;2024-02-21T01:29:55;10.38;96.37
66312;HTU21D;53114;51.138;6.008;2024-02-21T01:32:22;10.40;96.58
66312;HTU21D;53114;51.138;6.008;2024-02-21T01:34:50;10.38;96.84
66312;HTU21D;53114;51.138;6.008;2024-02-21T01:37:17;10.39;96.74
66312;HTU21D;53114;51.138;6.008;2024-02-21T01:39:43;10.35;96.16
66312;HTU21D;53114;51.138;6.008;2024-02-21T01:42:09;10.41;96.39
66312;HTU21D;53114;51.138;6.008;2024-02-21T01:44:35;10.43;94.85
66312;HTU21D;53114;51.138;6.008;2024-02-21T01:47:02;10.43;96.07
66312;HTU21D;53114;51.138;6.008;2024-02-21T01:49:28;10.46;95.72
66312;HTU21D;53114;51.138;6.008;2024-02-21T01:51:54;10.48;95.33
66312;HTU21D;53114;51.138;6.008;2024-02-21T01:54:20;10.46;95.40
66312;HTU21D;53114;51.138;6.008;2024-02-21T01:56:47;10.46;95.35
66312;HTU21D;53114;51.138;6.008;2024-02-21T01:59:15;10.51;95.23
66312;HTU21D;53114;51.138;6.008;2024-02-21T02:01:42;10.49;95.43
66312;HTU21D;53114;51.138;6.008;2024-02-21T02:04:08;10.51;95.48
66312;HTU21D;53114;51.138;6.008;2024-02-21T02:06:37;10.49;95.30
66312;HTU21D;53114;51.138;6.008;2024-02-21T02:09:03;10.44;95.67
66312;HTU21D;53114;51.138;6.008;2024-02-21T02:11:31;10.41;96.06
66312;HTU21D;53114;51.138;6.008;2024-02-21T02:13:58;10.44;95.79
66312;HTU21D;53114;51.138;6.008;2024-02-21T02:16:24;10.43;96.49
66312;HTU21D;53114;51.138;6.008;2024-02-21T02:18:50;10.33;97.26
66312;HTU21D;53114;51.138;6.008;2024-02-21T02:21:29;10.39;97.05
66312;HTU21D;53114;51.138;6.008;2024-02-21T02:23:56;10.41;97.16
66312;HTU21D;53114;51.138;6.008;2024-02-21T02:26:22;10.43;96.82
66312;HTU21D;53114;51.138;6.008;2024-02-21T02:28:48;10.44;96.77
66312;HTU21D;53114;51.138;6.008;2024-02-21T02:31:13;10.44;96.46
66312;HTU21D;53114;51.138;6.008;2024-02-21T02:33:39;10.45;95.86
66312;HTU21D;53114;51.138;6.008;2024-02-21T02:36:10;10.46;95.62
66312;HTU21D;53114;51.138;6.008;2024-02-21T02:38:36;10.44;95.80
66312;HTU21D;53114;51.138;6.008;2024-02-21T02:41:02;10.49;95.65
66312;HTU21D;53114;51.138;6.008;2024-02-21T02:43:28;10.49;95.23
66312;HTU21D;53114;51.138;6.008;2024-02-21T02:45:54;10.48;95.36
66312;HTU21D;53114;51.138;6.008;2024-02-21T02:48:21;10.45;95.49
66312;HTU21D;53114;51.138;6.008;2024-02-21T02:50:47;10.41;96.29
66312;HTU21D;53114;51.138;6.008;2024-02-21T02:53:13;10.42;96.20
66312;HTU21D;53114;51.138;6.008;2024-02-21T02:55:39;10.44;95.94
66312;HTU21D;53114;51.138;6.008;2024-02-21T02:58:04;10.46;95.88
66312;HTU21D;53114;51.138;6.008;2024-02-21T03:00:30;10.46;95.35
66312;HTU21D;53114;51.138;6.008;2024-02-21T03:02:56;10.46;95.11
66312;HTU21D;53114;51.138;6.008;2024-02-21T03:05:22;10.45;95.21
66312;HTU21D;53114;51.138;6.008;2024-02-21T03:07:48;10.43;94.56
66312;HTU21D;53114;51.138;6.008;2024-02-21T03:10:14;10.45;94.44
66312;HTU21D;53114;51.138;6.008;2024-02-21T03:12:43;10.41;94.91
66312;HTU21D;53114;51.138;6.008;2024-02-21T03:15:10;10.40;94.93
66312;HTU21D;53114;51.138;6.008;2024-02-21T03:17:36;10.40;94.82
66312;HTU21D;53114;51.138;6.008;2024-02-21T03:20:05;10.42;94.57
66312;HTU21D;53114;51.138;6.008;2024-02-21T03:22:34;10.46;94.01
66312;HTU21D;53114;51.138;6.008;2024-02-21T03:25:00;10.45;93.81
66312;HTU21D;53114;51.138;6.008;2024-02-21T03:27:26;10.36;94.50
66312;HTU21D;53114;51.138;6.008;2024-02-21T03:29:53;10.36;94.43
66312;HTU21D;53114;51.138;6.008;2024-02-21T03:32:21;10.35;94.82
66312;HTU21D;53114;51.138;6.008;2024-02-21T03:34:47;10.36;95.00
66312;HTU21D;53114;51.138;6.008;2024-02-21T03:37:13;10.36;95.16
66312;HTU21D;53114;51.138;6.008;2024-02-21T03:39:40;10.33;94.92
66312;HTU21D;53114;51.138;6.008;2024-02-21T03:42:06;10.31;95.14
66312;HTU21D;53114;51.138;6.008;2024-02-21T03:44:32;10.30;95.07
66312;HTU21D;53114;51.138;6.008;2024-02-21T03:47:01;10.30;94.24
66312;HTU21D;53114;51.138;6.008;2024-02-21T03:49:27;10.31;94.56
66312;HTU21D;53114;51.138;6.008;2024-02-21T03:51:54;10.31;94.57
66312;HTU21D;53114;51.138;6.008;2024-02-21T03:54:20;10.30;94.82
66312;HTU21D;53114;51.138;6.008;2024-02-21T03:56:46;10.31;94.78
66312;HTU21D;53114;51.138;6.008;2024-02-21T03:59:15;10.27;95.01
66312;HTU21D;53114;51.138;6.008;2024-02-21T04:01:41;10.21;94.30
66312;HTU21D;53114;51.138;6.008;2024-02-21T04:04:07;10.18;95.75
66312;HTU21D;53114;51.138;6.008;2024-02-21T04:06:33;10.15;95.93
66312;HTU21D;53114;51.138;6.008;2024-02-21T04:08:59;10.14;95.43
66312;HTU21D;53114;51.138;6.008;2024-02-21T04:11:25;10.15;95.44
66312;HTU21D;53114;51.138;6.008;2024-02-21T04:13:51;10.19;95.65
66312;HTU21D;53114;51.138;6.008;2024-02-21T04:16:17;10.19;95.49
66312;HTU21D;53114;51.138;6.008;2024-02-21T04:18:44;10.22;94.40
66312;HTU21D;53114;51.138;6.008;2024-02-21T04:21:10;10.20;94.85
66312;HTU21D;53114;51.138;6.008;2024-02-21T04:23:36;10.15;95.16
66312;HTU21D;53114;51.138;6.008;2024-02-21T04:26:02;10.13;95.27
66312;HTU21D;53114;51.138;6.008;2024-02-21T04:28:27;10.11;95.17
66312;HTU21D;53114;51.138;6.008;2024-02-21T04:30:53;10.13;95.33
66312;HTU21D;53114;51.138;6.008;2024-02-21T04:33:19;10.14;95.31
66312;HTU21D;53114;51.138;6.008;2024-02-21T04:35:45;10.18;95.63
66312;HTU21D;53114;51.138;6.008;2024-02-21T04:38:11;10.21;95.36
66312;HTU21D;53114;51.138;6.008;2024-02-21T04:40:37;10.20;95.30
66312;HTU21D;53114;51.138;6.008;2024-02-21T04:43:03;10.20;95.28
66312;HTU21D;53114;51.138;6.008;2024-02-21T04:45:29;10.23;95.26
66312;HTU21D;53114;51.138;6.008;2024-02-21T04:47:55;10.19;95.14
66312;HTU21D;53114;51.138;6.008;2024-02-21T04:50:20;10.16;95.32
66312;HTU21D;53114;51.138;6.008;2024-02-21T04:52:46;10.13;95.59
66312;HTU21D;53114;51.138;6.008;2024-02-21T04:55:12;10.06;94.82
66312;HTU21D;53114;51.138;6.008;2024-02-21T04:57:38;10.08;95.59
66312;HTU21D;53114;51.138;6.008;2024-02-21T05:00:05;10.07;95.54
66312;HTU21D;53114;51.138;6.008;2024-02-21T05:02:31;10.10;95.17
66312;HTU21D;53114;51.138;6.008;2024-02-21T05:04:57;10.13;94.94
66312;HTU21D;53114;51.138;6.008;2024-02-21T05:07:26;10.14;94.77
66312;HTU21D;53114;51.138;6.008;2024-02-21T05:09:52;10.12;94.49
66312;HTU21D;53114;51.138;6.008;2024-02-21T05:12:18;10.19;93.24
66312;HTU21D;53114;51.138;6.008;2024-02-21T05:14:44;10.21;93.34
66312;HTU21D;53114;51.138;6.008;2024-02-21T05:17:10;10.22;93.11
66312;HTU21D;53114;51.138;6.008;2024-02-21T05:19:36;10.25;92.69
66312;HTU21D;53114;51.138;6.008;2024-02-21T05:22:02;10.22;90.92
66312;HTU21D;53114;51.138;6.008;2024-02-21T05:24:27;10.23;92.71
66312;HTU21D;53114;51.138;6.008;2024-02-21T05:26:55;10.23;92.87
66312;HTU21D;53114;51.138;6.008;2024-02-21T05:29:21;10.19;92.27
66312;HTU21D;53114;51.138;6.008;2024-02-21T05:34:19;10.21;93.44
66312;HTU21D;53114;51.138;6.008;2024-02-21T05:36:46;10.21;93.44
66312;HTU21D;53114;51.138;6.008;2024-02-21T05:39:13;10.24;93.43
66312;HTU21D;53114;51.138;6.008;2024-02-21T05:41:40;10.13;91.82
66312;HTU21D;53114;51.138;6.008;2024-02-21T05:44:05;10.18;93.82
66312;HTU21D;53114;51.138;6.008;2024-02-21T05:46:32;10.20;93.70
66312;HTU21D;53114;51.138;6.008;2024-02-21T05:48:58;10.24;93.49
66312;HTU21D;53114;51.138;6.008;2024-02-21T05:51:24;10.22;92.64
66312;HTU21D;53114;51.138;6.008;2024-02-21T05:53:49;10.20;92.95
66312;HTU21D;53114;51.138;6.008;2024-02-21T05:56:15;10.13;93.72
66312;HTU21D;53114;51.138;6.008;2024-02-21T05:58:42;10.12;94.09
66312;HTU21D;53114;51.138;6.008;2024-02-21T06:01:08;10.14;94.46
66312;HTU21D;53114;51.138;6.008;2024-02-21T06:03:35;10.16;94.14
66312;HTU21D;53114;51.138;6.008;2024-02-21T06:06:02;10.13;94.39
66312;HTU21D;53114;51.138;6.008;2024-02-21T06:08:28;10.09;94.59
66312;HTU21D;53114;51.138;6.008;2024-02-21T06:10:54;10.04;95.59
66312;HTU21D;53114;51.138;6.008;2024-02-21T06:13:22;10.01;95.69
66312;HTU21D;53114;51.138;6.008;2024-02-21T06:15:48;10.00;95.91
66312;HTU21D;53114;51.138;6.008;2024-02-21T06:18:14;9.97;95.75
66312;HTU21D;53114;51.138;6.008;2024-02-21T06:20:40;10.03;95.67
66312;HTU21D;53114;51.138;6.008;2024-02-21T06:23:07;9.94;96.45
66312;HTU21D;53114;51.138;6.008;2024-02-21T06:25:33;9.92;96.62
66312;HTU21D;53114;51.138;6.008;2024-02-21T06:27:59;9.88;97.20
66312;HTU21D;53114;51.138;6.008;2024-02-21T06:30:25;9.79;97.78
66312;HTU21D;53114;51.138;6.008;2024-02-21T06:32:52;9.77;97.78
66312;HTU21D;53114;51.138;6.008;2024-02-21T06:35:21;9.78;97.72
66312;HTU21D;53114;51.138;6.008;2024-02-21T06:37:50;9.75;99.11
66312;HTU21D;53114;51.138;6.008;2024-02-21T06:40:18;9.66;100.96
66312;HTU21D;53114;51.138;6.008;2024-02-21T06:42:43;9.70;100.16
66312;HTU21D;53114;51.138;6.008;2024-02-21T06:45:09;9.70;101.12
66312;HTU21D;53114;51.138;6.008;2024-02-21T06:47:35;9.69;100.56
66312;HTU21D;53114;51.138;6.008;2024-02-21T06:50:01;9.75;99.79
66312;HTU21D;53114;51.138;6.008;2024-02-21T06:52:27;9.70;99.56
66312;HTU21D;53114;51.138;6.008;2024-02-21T06:54:53;9.67;97.45
66312;HTU21D;53114;51.138;6.008;2024-02-21T06:57:19;9.65;97.88
66312;HTU21D;53114;51.138;6.008;2024-02-21T06:59:45;9.53;99.26
66312;HTU21D;53114;51.138;6.008;2024-02-21T07:02:11;9.53;100.35
66312;HTU21D;53114;51.138;6.008;2024-02-21T07:04:37;9.62;99.35
66312;HTU21D;53114;51.138;6.008;2024-02-21T07:07:03;9.66;99.22
66312;HTU21D;53114;51.138;6.008;2024-02-21T07:09:29;9.64;99.35
66312;HTU21D;53114;51.138;6.008;2024-02-21T07:12:01;9.67;97.38
66312;HTU21D;53114;51.138;6.008;2024-02-21T07:14:31;9.68;96.12
66312;HTU21D;53114;51.138;6.008;2024-02-21T07:16:58;9.72;96.62
66312;HTU21D;53114;51.138;6.008;2024-02-21T07:19:24;9.77;95.33
66312;HTU21D;53114;51.138;6.008;2024-02-21T07:21:49;9.83;96.01
66312;HTU21D;53114;51.138;6.008;2024-02-21T07:24:15;9.80;96.16
66312;HTU21D;53114;51.138;6.008;2024-02-21T07:26:42;9.82;96.00
66312;HTU21D;53114;51.138;6.008;2024-02-21T07:29:11;9.71;96.58
66312;HTU21D;53114;51.138;6.008;2024-02-21T07:31:41;9.80;95.60
66312;HTU21D;53114;51.138;6.008;2024-02-21T07:34:07;9.74;95.30
66312;HTU21D;53114;51.138;6.008;2024-02-21T07:36:34;9.77;96.26
66312;HTU21D;53114;51.138;6.008;2024-02-21T07:39:00;9.75;96.52
66312;HTU21D;53114;51.138;6.008;2024-02-21T07:41:26;9.77;97.20
66312;HTU21D;53114;51.138;6.008;2024-02-21T07:43:52;9.64;99.06
66312;HTU21D;53114;51.138;6.008;2024-02-21T07:46:18;9.70;98.60
66312;HTU21D;53114;51.138;6.008;2024-02-21T07:48:47;9.74;98.30
66312;HTU21D;53114;51.138;6.008;2024-02-21T07:51:14;9.75;98.18
66312;HTU21D;53114;51.138;6.008;2024-02-21T07:53:42;9.69;100.44
66312;HTU21D;53114;51.138;6.008;2024-02-21T07:56:14;9.60;100.67
66312;HTU21D;53114;51.138;6.008;2024-02-21T07:58:41;9.55;101.96
66312;HTU21D;53114;51.138;6.008;2024-02-21T08:01:07;9.50;104.31
66312;HTU21D;53114;51.138;6.008;2024-02-21T08:03:33;9.52;103.18
66312;HTU21D;53114;51.138;6.008;2024-02-21T08:05:59;9.54;102.86
66312;HTU21D;53114;51.138;6.008;2024-02-21T08:08:25;9.63;104.28
66312;HTU21D;53114;51.138;6.008;2024-02-21T08:10:52;9.48;103.66
66312;HTU21D;53114;51.138;6.008;2024-02-21T08:13:18;9.59;103.09
66312;HTU21D;53114;51.138;6.008;2024-02-21T08:15:44;9.60;102.71
66312;HTU21D;53114;51.138;6.008;2024-02-21T08:18:10;9.49;102.19
66312;HTU21D;53114;51.138;6.008;2024-02-21T08:20:36;9.51;103.21
66312;HTU21D;53114;51.138;6.008;2024-02-21T08:23:02;9.42;102.57
66312;HTU21D;53114;51.138;6.008;2024-02-21T08:25:28;9.40;105.45
66312;HTU21D;53114;51.138;6.008;2024-02-21T08:27:58;9.50;103.77
66312;HTU21D;53114;51.138;6.008;2024-02-21T08:30:24;9.51;103.63
66312;HTU21D;53114;51.138;6.008;2024-02-21T08:32:50;9.49;102.07
66312;HTU21D;53114;51.138;6.008;2024-02-21T08:35:16;9.65;101.10
66312;HTU21D;53114;51.138;6.008;2024-02-21T08:37:46;9.71;99.34
66312;HTU21D;53114;51.138;6.008;2024-02-21T08:40:14;9.64;100.16
66312;HTU21D;53114;51.138;6.008;2024-02-21T08:42:43;9.68;100.75
66312;HTU21D;53114;51.138;6.008;2024-02-21T08:45:10;9.56;97.43
66312;HTU21D;53114;51.138;6.008;2024-02-21T08:47:36;9.72;99.77
66312;HTU21D;53114;51.138;6.008;2024-02-21T08:50:02;9.61;99.01
66312;HTU21D;53114;51.138;6.008;2024-02-21T08:52:28;9.68;99.03
66312;HTU21D;53114;51.138;6.008;2024-02-21T08:54:54;9.60;94.05
66312;HTU21D;53114;51.138;6.008;2024-02-21T08:57:20;9.75;97.88
66312;HTU21D;53114;51.138;6.008;2024-02-21T08:59:46;9.74;95.42
66312;HTU21D;53114;51.138;6.008;2024-02-21T09:02:13;9.75;94.78
66312;HTU21D;53114;51.138;6.008;2024-02-21T09:04:42;9.70;96.21
66312;HTU21D;53114;51.138;6.008;2024-02-21T09:07:08;9.76;96.77
66312;HTU21D;53114;51.138;6.008;2024-02-21T09:09:34;9.82;94.65
66312;HTU21D;53114;51.138;6.008;2024-02-21T09:12:00;9.85;93.87
66312;HTU21D;53114;51.138;6.008;2024-02-21T09:14:32;9.83;93.74
66312;HTU21D;53114;51.138;6.008;2024-02-21T09:16:58;9.88;88.59
66312;HTU21D;53114;51.138;6.008;2024-02-21T09:19:24;10.00;92.01
66312;HTU21D;53114;51.138;6.008;2024-02-21T09:21:50;10.05;89.18
66312;HTU21D;53114;51.138;6.008;2024-02-21T09:24:17;10.11;90.27
66312;HTU21D;53114;51.138;6.008;2024-02-21T09:26:43;10.10;89.19
66312;HTU21D;53114;51.138;6.008;2024-02-21T09:29:09;10.15;86.87
66312;HTU21D;53114;51.138;6.008;2024-02-21T09:31:35;10.14;85.84
66312;HTU21D;53114;51.138;6.008;2024-02-21T09:34:01;10.25;88.92
66312;HTU21D;53114;51.138;6.008;2024-02-21T09:36:27;10.31;86.56
66312;HTU21D;53114;51.138;6.008;2024-02-21T09:38:54;10.31;82.74
66312;HTU21D;53114;51.138;6.008;2024-02-21T09:41:26;10.33;87.34
66312;HTU21D;53114;51.138;6.008;2024-02-21T09:43:53;10.34;85.76
66312;HTU21D;53114;51.138;6.008;2024-02-21T09:46:27;10.34;85.71
66312;HTU21D;53114;51.138;6.008;2024-02-21T09:51:45;10.33;84.38
66312;HTU21D;53114;51.138;6.008;2024-02-21T09:54:13;10.29;83.57
66312;HTU21D;53114;51.138;6.008;2024-02-21T09:56:39;10.45;84.65
66312;HTU21D;53114;51.138;6.008;2024-02-21T09:59:05;10.49;83.17
66312;HTU21D;53114;51.138;6.008;2024-02-21T10:01:31;10.67;83.90
66312;HTU21D;53114;51.138;6.008;2024-02-21T10:03:58;10.74;83.51
66312;HTU21D;53114;51.138;6.008;2024-02-21T10:06:24;10.81;83.35
66312;HTU21D;53114;51.138;6.008;2024-02-21T10:08:53;10.81;81.04
66312;HTU21D;53114;51.138;6.008;2024-02-21T10:11:25;10.75;81.18
66312;HTU21D;53114;51.138;6.008;2024-02-21T10:14:05;10.78;80.98
66312;HTU21D;53114;51.138;6.008;2024-02-21T10:16:32;10.83;82.04
66312;HTU21D;53114;51.138;6.008;2024-02-21T10:18:59;10.84;81.71
66312;HTU21D;53114;51.138;6.008;2024-02-21T10:21:25;10.74;79.59
66312;HTU21D;53114;51.138;6.008;2024-02-21T10:23:52;10.75;80.94
66312;HTU21D;53114;51.138;6.008;2024-02-21T10:26:19;10.79;80.87
66312;HTU21D;53114;51.138;6.008;2024-02-21T10:28:46;10.94;81.97
66312;HTU21D;53114;51.138;6.008;2024-02-21T10:31:27;10.97;80.88
66312;HTU21D;53114;51.138;6.008;2024-02-21T10:33:54;11.10;79.93
66312;HTU21D;53114;51.138;6.008;2024-02-21T10:36:20;11.08;79.15
66312;HTU21D;53114;51.138;6.008;2024-02-21T10:38:46;11.01;79.24
66312;HTU21D;53114;51.138;6.008;2024-02-21T10:41:14;11.10;76.98
66312;HTU21D;53114;51.138;6.008;2024-02-21T10:43:46;11.16;79.79
66312;HTU21D;53114;51.138;6.008;2024-02-21T10:46:19;11.17;79.64
66312;HTU21D;53114;51.138;6.008;2024-02-21T10:48:46;11.26;80.59
66312;HTU21D;53114;51.138;6.008;2024-02-21T10:51:17;11.23;79.25
66312;HTU21D;53114;51.138;6.008;2024-02-21T10:56:32;11.23;79.66
66312;HTU21D;53114;51.138;6.008;2024-02-21T10:59:04;11.33;79.41
66312;HTU21D;53114;51.138;6.008;2024-02-21T11:01:31;11.28;75.18
66312;HTU21D;53114;51.138;6.008;2024-02-21T11:04:04;11.30;77.98
66312;HTU21D;53114;51.138;6.008;2024-02-21T11:06:32;11.47;78.79
66312;HTU21D;53114;51.138;6.008;2024-02-21T11:09:08;11.60;76.15
66312;HTU21D;53114;51.138;6.008;2024-02-21T11:11:44;11.64;76.16
66312;HTU21D;53114;51.138;6.008;2024-02-21T11:14:18;11.68;77.37
66312;HTU21D;53114;51.138;6.008;2024-02-21T11:16:45;11.76;76.55
66312;HTU21D;53114;51.138;6.008;2024-02-21T11:19:22;11.74;75.63
66312;HTU21D;53114;51.138;6.008;2024-02-21T11:21:49;11.83;76.86
66312;HTU21D;53114;51.138;6.008;2024-02-21T11:24:34;11.76;76.89
66312;HTU21D;53114;51.138;6.008;2024-02-21T11:27:13;11.90;77.31
66312;HTU21D;53114;51.138;6.008;2024-02-21T11:29:42;11.96;75.77
66312;HTU21D;53114;51.138;6.008;2024-02-21T11:32:16;11.91;75.60
66312;HTU21D;53114;51.138;6.008;2024-02-21T11:37:21;11.91;75.93
66312;HTU21D;53114;51.138;6.008;2024-02-21T11:39:50;11.96;75.73
66312;HTU21D;53114;51.138;6.008;2024-02-21T11:42:16;11.97;77.53
66312;HTU21D;53114;51.138;6.008;2024-02-21T11:44:42;12.10;74.96
66312;HTU21D;53114;51.138;6.008;2024-02-21T11:47:09;12.20;72.51
66312;HTU21D;53114;51.138;6.008;2024-02-21T11:49:43;12.31;74.01
66312;HTU21D;53114;51.138;6.008;2024-02-21T11:52:12;12.32;74.26
66312;HTU21D;53114;51.138;6.008;2024-02-21T11:54:41;12.27;72.62
66312;HTU21D;53114;51.138;6.008;2024-02-21T11:57:07;12.31;73.51
66312;HTU21D;53114;51.138;6.008;2024-02-21T11:59:33;12.44;73.04
66312;HTU21D;53114;51.138;6.008;2024-02-21T12:02:00;12.61;73.01
66312;HTU21D;53114;51.138;6.008;2024-02-21T12:04:27;12.60;72.61
66312;HTU21D;53114;51.138;6.008;2024-02-21T12:06:54;12.69;70.80
66312;HTU21D;53114;51.138;6.008;2024-02-21T12:09:20;12.67;72.22
66312;HTU21D;53114;51.138;6.008;2024-02-21T12:12:00;12.77;72.27
66312;HTU21D;53114;51.138;6.008;2024-02-21T12:14:27;12.80;68.92
66312;HTU21D;53114;51.138;6.008;2024-02-21T12:16:54;12.74;69.78
66312;HTU21D;53114;51.138;6.008;2024-02-21T12:19:20;12.76;70.07
66312;HTU21D;53114;51.138;6.008;2024-02-21T12:21:48;12.90;70.03
66312;HTU21D;53114;51.138;6.008;2024-02-21T12:24:17;13.02;69.71
66312;HTU21D;53114;51.138;6.008;2024-02-21T12:26:46;12.91;68.00
66312;HTU21D;53114;51.138;6.008;2024-02-21T12:29:12;13.05;68.07
66312;HTU21D;53114;51.138;6.008;2024-02-21T12:31:38;12.95;67.58
66312;HTU21D;53114;51.138;6.008;2024-02-21T12:34:05;12.78;68.35
66312;HTU21D;53114;51.138;6.008;2024-02-21T12:36:32;12.79;68.57
66312;HTU21D;53114;51.138;6.008;2024-02-21T12:38:59;12.90;69.05
66312;HTU21D;53114;51.138;6.008;2024-02-21T12:41:26;12.89;66.49
66312;HTU21D;53114;51.138;6.008;2024-02-21T12:43:53;12.75;65.32
66312;HTU21D;53114;51.138;6.008;2024-02-21T12:46:19;12.76;67.16
66312;HTU21D;53114;51.138;6.008;2024-02-21T12:48:45;12.74;67.65
66312;HTU21D;53114;51.138;6.008;2024-02-21T12:51:11;12.85;66.71
66312;HTU21D;53114;51.138;6.008;2024-02-21T12:53:37;12.72;66.78
66312;HTU21D;53114;51.138;6.008;2024-02-21T12:56:03;12.85;67.48
66312;HTU21D;53114;51.138;6.008;2024-02-21T12:58:30;12.78;65.46
66312;HTU21D;53114;51.138;6.008;2024-02-21T13:00:57;12.89;67.59
66312;HTU21D;53114;51.138;6.008;2024-02-21T13:03:23;12.71;67.49
66312;HTU21D;53114;51.138;6.008;2024-02-21T13:05:49;12.60;68.22
66312;HTU21D;53114;51.138;6.008;2024-02-21T13:08:14;12.60;67.24
66312;HTU21D;53114;51.138;6.008;2024-02-21T13:10:40;12.57;68.04
66312;HTU21D;53114;51.138;6.008;2024-02-21T13:13:06;12.56;67.84
66312;HTU21D;53114;51.138;6.008;2024-02-21T13:15:32;12.63;68.53
66312;HTU21D;53114;51.138;6.008;2024-02-21T13:17:58;12.62;68.71
66312;HTU21D;53114;51.138;6.008;2024-02-21T13:20:27;12.42;68.65
66312;HTU21D;53114;51.138;6.008;2024-02-21T13:22:54;12.55;70.08
66312;HTU21D;53114;51.138;6.008;2024-02-21T13:25:20;12.27;69.03
66312;HTU21D;53114;51.138;6.008;2024-02-21T13:27:47;12.17;68.44
66312;HTU21D;53114;51.138;6.008;2024-02-21T13:30:14;12.18;68.48
66312;HTU21D;53114;51.138;6.008;2024-02-21T13:32:44;12.27;68.80
66312;HTU21D;53114;51.138;6.008;2024-02-21T13:35:13;12.07;67.97
66312;HTU21D;53114;51.138;6.008;2024-02-21T13:37:43;12.16;69.23
66312;HTU21D;53114;51.138;6.008;2024-02-21T13:40:09;12.08;69.63
66312;HTU21D;53114;51.138;6.008;2024-02-21T13:42:39;12.17;68.39
66312;HTU21D;53114;51.138;6.008;2024-02-21T13:45:06;12.28;69.42
66312;HTU21D;53114;51.138;6.008;2024-02-21T13:47:35;12.17;69.61
66312;HTU21D;53114;51.138;6.008;2024-02-21T13:50:05;12.08;70.29
66312;HTU21D;53114;51.138;6.008;2024-02-21T13:52:40;12.14;69.81
66312;HTU21D;53114;51.138;6.008;2024-02-21T13:55:06;12.17;69.64
66312;HTU21D;53114;51.138;6.008;2024-02-21T13:57:37;12.30;70.05
66312;HTU21D;53114;51.138;6.008;2024-02-21T14:00:04;12.27;68.31
66312;HTU21D;53114;51.138;6.008;2024-02-21T14:02:38;12.28;70.90
66312;HTU21D;53114;51.138;6.008;2024-02-21T14:05:05;12.16;69.83
66312;HTU21D;53114;51.138;6.008;2024-02-21T14:07:32;12.31;70.16
66312;HTU21D;53114;51.138;6.008;2024-02-21T14:10:00;12.37;70.61
66312;HTU21D;53114;51.138;6.008;2024-02-21T14:12:26;12.14;68.58
66312;HTU21D;53114;51.138;6.008;2024-02-21T14:14:52;12.25;69.23
66312;HTU21D;53114;51.138;6.008;2024-02-21T14:17:18;12.13;70.77
66312;HTU21D;53114;51.138;6.008;2024-02-21T14:19:45;12.18;69.59
66312;HTU21D;53114;51.138;6.008;2024-02-21T14:22:11;12.12;69.87
66312;HTU21D;53114;51.138;6.008;2024-02-21T14:24:37;12.26;69.99
66312;HTU21D;53114;51.138;6.008;2024-02-21T14:27:04;12.13;70.54
66312;HTU21D;53114;51.138;6.008;2024-02-21T14:29:30;12.13;69.76
66312;HTU21D;53114;51.138;6.008;2024-02-21T14:31:55;12.21;72.36
66312;HTU21D;53114;51.138;6.008;2024-02-21T14:34:21;12.12;71.51
66312;HTU21D;53114;51.138;6.008;2024-02-21T14:36:47;12.06;71.67
66312;HTU21D;53114;51.138;6.008;2024-02-21T14:39:14;11.96;70.52
66312;HTU21D;53114;51.138;6.008;2024-02-21T14:41:40;12.02;70.40
66312;HTU21D;53114;51.138;6.008;2024-02-21T14:44:06;12.03;69.91
66312;HTU21D;53114;51.138;6.008;2024-02-21T14:46:32;12.01;71.06
66312;HTU21D;53114;51.138;6.008;2024-02-21T14:48:58;12.06;71.24
66312;HTU21D;53114;51.138;6.008;2024-02-21T14:51:24;12.08;71.14
66312;HTU21D;53114;51.138;6.008;2024-02-21T14:53:50;12.05;70.58
66312;HTU21D;53114;51.138;6.008;2024-02-21T14:56:16;12.02;71.10
66312;HTU21D;53114;51.138;6.008;2024-02-21T14:58:43;11.96;69.87
66312;HTU21D;53114;51.138;6.008;2024-02-21T15:01:09;12.08;70.87
66312;HTU21D;53114;51.138;6.008;2024-02-21T15:03:35;11.98;71.02
66312;HTU21D;53114;51.138;6.008;2024-02-21T15:06:02;12.00;69.55
66312;HTU21D;53114;51.138;6.008;2024-02-21T15:08:28;12.01;70.57
66312;HTU21D;53114;51.138;6.008;2024-02-21T15:10:54;12.03;70.55
66312;HTU21D;53114;51.138;6.008;2024-02-21T15:13:20;11.99;69.45
66312;HTU21D;53114;51.138;6.008;2024-02-21T15:15:48;11.78;69.31
66312;HTU21D;53114;51.138;6.008;2024-02-21T15:18:14;11.72;69.45
66312;HTU21D;53114;51.138;6.008;2024-02-21T15:20:43;11.79;71.13
66312;HTU21D;53114;51.138;6.008;2024-02-21T15:23:09;11.68;71.06
66312;HTU21D;53114;51.138;6.008;2024-02-21T15:25:35;11.53;73.25
66312;HTU21D;53114;51.138;6.008;2024-02-21T15:28:03;11.58;71.42